Terminal Aerodrome Forecast
Issued by NWS Paducah, KY

Home | Current Version | Previous Version | Text Only | Print | Product List | Glossary On
Versions: 1 2 3 4 5 6 7 8 9 10 11 12 13 14 15 16 17 18 19 20
000
FTUS43 KPAH 201120
TAFPAH
TAF
KPAH 201120Z 2012/2112 19012G22KT P6SM BKN090
     FM201500 19018G30KT P6SM SCT030 BKN060
     FM210000 18013G23KT P6SM BKN050
     FM210600 19015KT P6SM -SHRA OVC035
     FM210900 32012G22KT 4SM SHRA BR OVC015=

USA.gov is the U.S. government's official web portal to all federal, state and local government web resources and services.